Terminal Aerodrome Forecast
Issued by NWS Grand Forks, ND

Home | Current Version | Previous Version | Graphics & Text | Print | Product List | Glossary On
Versions: 1 2 3 4 5 6 7 8 9 10 11 12 13 14
000
FTUS43 KFGF 272100 AAA
TAFGFK
TAF AMD
KGFK 272123Z 2721/2818 16012KT P6SM OVC050
      TEMPO 2721/2723 3SM -SN BKN025
     FM280400 16007KT P6SM BKN050
     FM281600 18020G25KT P6SM SCT250=

USA.gov is the U.S. government's official web portal to all federal, state and local government web resources and services.